| time (UTC) | temp C | wind direction | speed KPH | gust KPH | rain 1hr cm | rain 24hr cm | rain mn cm | humidity % | barometer mb |
| 20260506155940 | 11 | 46 | 1.6 | 9.7 | 0.00 | 2.44 | 2.13 | 94 | 1007.4 |
| 20260506154707 | 11 | 61 | 1.6 | 6.4 | 0.00 | 2.46 | 2.13 | 94 | 1007.1 |
| 20260506153437 | 11 | 65 | 3.2 | 9.7 | 0.00 | 2.51 | 2.13 | 94 | 1007.2 |
| 20260506152207 | 11 | 76 | 4.8 | 11.3 | 0.00 | 2.51 | 2.13 | 94 | 1007.2 |
| 20260506150937 | 11 | 65 | 3.2 | 9.7 | 0.00 | 2.51 | 2.13 | 94 | 1007.4 |
| 20260506145706 | 11 | 55 | 3.2 | 9.7 | 0.03 | 2.51 | 2.13 | 94 | 1007.1 |
| 20260506144436 | 11 | 69 | 3.2 | 9.7 | 0.05 | 2.51 | 2.13 | 94 | 1007.2 |
| 20260506143206 | 11 | 86 | 3.2 | 11.3 | 0.05 | 2.51 | 2.13 | 94 | 1007.3 |
| 20260506141936 | 11 | 68 | 3.2 | 11.3 | 0.05 | 2.51 | 2.13 | 94 | 1007.3 |
| 20260506140705 | 10 | 73 | 4.8 | 12.9 | 0.05 | 2.49 | 2.11 | 94 | 1007.6 |
| 20260506135435 | 10 | 65 | 3.2 | 11.3 | 0.05 | 2.46 | 2.08 | 94 | 1007.4 |
| 20260506134205 | 11 | 59 | 3.2 | 9.7 | 0.05 | 2.46 | 2.08 | 94 | 1007.4 |
| 20260506132935 | 11 | 54 | 1.6 | 4.8 | 0.05 | 2.46 | 2.08 | 94 | 1007.2 |
| 20260506131704 | 11 | 43 | 1.6 | 6.4 | 0.10 | 2.46 | 2.08 | 94 | 1007.3 |
| 20260506130434 | 10 | 75 | 3.2 | 11.3 | 0.10 | 2.44 | 2.06 | 94 | 1007.4 |
| 20260506125204 | 10 | 75 | 3.2 | 6.4 | 0.08 | 2.44 | 2.06 | 94 | 1006.9 |
| 20260506123934 | 10 | 63 | 1.6 | 4.8 | 0.05 | 2.41 | 2.03 | 94 | 1007.3 |
| 20260506122703 | 10 | 62 | 3.2 | 11.3 | 0.05 | 2.41 | 2.03 | 94 | 1007.2 |
| 20260506121433 | 10 | 76 | 3.2 | 9.7 | 0.03 | 2.36 | 1.98 | 94 | 1007.3 |
| 20260506120203 | 10 | 77 | 4.8 | 12.9 | 0.05 | 2.36 | 1.98 | 94 | 1007.0 |
| 20260506114933 | 10 | 78 | 3.2 | 11.3 | 0.10 | 2.36 | 1.98 | 94 | 1007.0 |
| 20260506113703 | 10 | 74 | 4.8 | 11.3 | 0.10 | 2.36 | 1.98 | 94 | 1007.0 |
| 20260506112433 | 10 | 50 | 1.6 | 6.4 | 0.08 | 2.36 | 1.98 | 94 | 1007.2 |
| 20260506111202 | 10 | 65 | 3.2 | 9.7 | 0.05 | 2.34 | 1.96 | 94 | 1007.0 |
| 20260506105932 | 10 | 73 | 4.8 | 9.7 | 0.03 | 2.31 | 1.93 | 94 | 1007.2 |
| 20260506104702 | 10 | 43 | 1.6 | 11.3 | 0.00 | 2.26 | 1.88 | 94 | 1007.0 |
| 20260506103431 | 10 | 71 | 3.2 | 11.3 | 0.00 | 2.26 | 1.88 | 94 | 1007.0 |
| 20260506102201 | 10 | 48 | 1.6 | 6.4 | 0.00 | 2.26 | 1.88 | 94 | 1007.0 |
| 20260506100931 | 10 | 42 | 3.2 | 11.3 | 0.00 | 2.26 | 1.88 | 94 | 1007.0 |
| 20260506095701 | 10 | 73 | 6.4 | 12.9 | 0.00 | 2.26 | 1.88 | 94 | 1007.0 |
| 20260506094431 | 10 | 78 | 4.8 | 11.3 | 0.03 | 2.26 | 1.88 | 94 | 1006.9 |
| 20260506093200 | 10 | 65 | 4.8 | 12.9 | 0.05 | 2.26 | 1.88 | 94 | 1006.8 |
| 20260506091930 | 10 | 56 | 3.2 | 9.7 | 0.05 | 2.26 | 1.88 | 94 | 1007.0 |
| 20260506090700 | 10 | 24 | 1.6 | 6.4 | 0.08 | 2.26 | 1.88 | 95 | 1006.7 |
| 20260506085430 | 10 | 44 | 3.2 | 9.7 | 0.08 | 2.26 | 1.88 | 95 | 1006.5 |
| 20260506084200 | 10 | 25 | 1.6 | 6.4 | 0.10 | 2.24 | 1.85 | 95 | 1007.0 |
| 20260506082929 | 10 | 12 | 3.2 | 11.3 | 0.08 | 2.21 | 1.83 | 95 | 1006.6 |
| 20260506081659 | 10 | 15 | 1.6 | 6.4 | 0.08 | 2.21 | 1.83 | 95 | 1006.5 |
| 20260506080429 | 10 | 22 | 3.2 | 9.7 | 0.08 | 2.21 | 1.83 | 95 | 1006.3 |
| 20260506072659 | 10 | 26 | 3.2 | 9.7 | 0.03 | 2.13 | 1.75 | 95 | 1006.5 |
| 20260506071428 | 10 | 74 | 3.2 | 9.7 | 0.03 | 2.13 | 1.75 | 95 | 1006.4 |
| 20260506070158 | 10 | 74 | 4.8 | 11.3 | 0.00 | 2.11 | 1.75 | 95 | 1006.4 |
| 20260506062427 | 9 | 84 | 3.2 | 9.7 | 0.03 | 2.16 | 1.73 | 95 | 1006.3 |
| 20260506061158 | 9 | 72 | 1.6 | 4.8 | 0.05 | 2.16 | 1.73 | 95 | 1006.0 |
| 20260506050926 | 9 | 40 | 1.6 | 4.8 | 0.05 | 2.13 | 1.70 | 95 | 1006.2 |
| 20260506044426 | 9 | 64 | 3.2 | 6.4 | 0.10 | 2.11 | 1.65 | 95 | 1006.1 |
| 20260506043156 | 9 | 74 | 0.0 | 4.8 | 0.18 | 2.16 | 1.65 | 95 | 1006.4 |
| 20260506041925 | 9 | 45 | 1.6 | 4.8 | 0.23 | 2.16 | 1.65 | 95 | 1006.3 |
| 20260506040655 | 9 | 64 | 1.6 | 6.4 | 0.28 | 2.16 | 1.63 | 95 | 1006.5 |
| 20260506035425 | 9 | 57 | 3.2 | 9.7 | 0.28 | 2.13 | 1.60 | 95 | 1006.5 |
| 20260506034155 | 9 | 69 | 3.2 | 9.7 | 0.28 | 2.11 | 1.55 | 95 | 1006.4 |
| 20260506032925 | 9 | 63 | 1.6 | 6.4 | 0.23 | 2.03 | 1.45 | 95 | 1006.8 |
| 20260506031655 | 10 | 76 | 1.6 | 6.4 | 0.23 | 1.96 | 1.40 | 95 | 1006.8 |
| 20260506030424 | 10 | 65 | 3.2 | 9.7 | 0.25 | 1.91 | 1.35 | 95 | 1007.0 |
| 20260506025154 | 10 | 71 | 3.2 | 11.3 | 0.30 | 1.85 | 1.30 | 95 | 1006.7 |
| 20260506023924 | 10 | 74 | 3.2 | 6.4 | 0.33 | 1.80 | 1.24 | 95 | 1007.2 |
| 20260506022655 | 10 | 63 | 1.6 | 6.4 | 0.33 | 1.78 | 1.22 | 95 | 1007.0 |
| 20260506021424 | 10 | 50 | 1.6 | 3.2 | 0.33 | 1.70 | 1.14 | 95 | 1007.1 |
| 20260506020154 | 10 | 81 | 3.2 | 9.7 | 0.33 | 1.65 | 1.09 | 95 | 1007.1 |
| 20260506014923 | 10 | 80 | 3.2 | 12.9 | 0.28 | 1.55 | 0.99 | 94 | 1007.2 |
| 20260506013653 | 10 | 54 | 3.2 | 6.4 | 0.28 | 1.47 | 0.91 | 94 | 1007.5 |
| 20260506012423 | 10 | 77 | 4.8 | 12.9 | 0.30 | 1.42 | 0.86 | 94 | 1007.1 |
| 20260506011153 | 10 | 69 | 3.2 | 9.7 | 0.30 | 1.37 | 0.81 | 94 | 1007.4 |
| 20260506005922 | 10 | 76 | 3.2 | 9.7 | 0.30 | 1.32 | 0.76 | 94 | 1007.6 |
| 20260506004652 | 10 | 74 | 1.6 | 6.4 | 0.28 | 1.24 | 0.69 | 94 | 1007.6 |
| 20260506003422 | 10 | 40 | 0.0 | 1.6 | 0.25 | 1.17 | 0.61 | 95 | 1007.7 |
| 20260506002152 | 10 | 81 | 3.2 | 11.3 | 0.20 | 1.09 | 0.53 | 94 | 1007.7 |
| 20260506000922 | 10 | 70 | 3.2 | 11.3 | 0.20 | 1.04 | 0.48 | 94 | 1008.0 |
| 20260505235651 | 10 | 80 | 1.6 | 12.9 | 0.20 | 0.99 | 0.43 | 94 | 1008.1 |
| 20260505234421 | 10 | 76 | 3.2 | 12.9 | 0.25 | 0.97 | 0.41 | 94 | 1008.1 |
| 20260505233151 | 10 | 85 | 4.8 | 12.9 | 0.25 | 0.94 | 0.36 | 94 | 1008.2 |
| 20260505231921 | 10 | 83 | 3.2 | 12.9 | 0.25 | 0.89 | 0.33 | 94 | 1008.1 |
| 20260505230651 | 10 | 80 | 4.8 | 11.3 | 0.25 | 0.86 | 0.28 | 94 | 1008.3 |
| 20260505225420 | 10 | 69 | 4.8 | 12.9 | 0.23 | 0.79 | 0.20 | 94 | 1008.4 |
| 20260505224150 | 10 | 80 | 4.8 | 14.5 | 0.18 | 0.74 | 0.15 | 94 | 1008.5 |
| 20260505222920 | 10 | 66 | 3.2 | 9.7 | 0.18 | 0.69 | 0.10 | 94 | 1008.5 |
| 20260505221650 | 10 | 80 | 4.8 | 11.3 | 0.18 | 0.66 | 0.05 | 94 | 1008.4 |
| 20260505220420 | 11 | 66 | 3.2 | 9.7 | 0.15 | 0.61 | 0.00 | 94 | 1008.7 |
| 20260505215149 | 11 | 87 | 3.2 | 9.7 | 0.15 | 0.56 | 0.56 | 94 | 1008.5 |
| 20260505213919 | 11 | 73 | 4.8 | 14.5 | 0.13 | 0.53 | 0.53 | 94 | 1008.9 |
| 20260505212649 | 11 | 90 | 4.8 | 12.9 | 0.13 | 0.51 | 0.51 | 94 | 1009.0 |
| 20260505211419 | 11 | 86 | 4.8 | 14.5 | 0.10 | 0.48 | 0.48 | 94 | 1008.9 |
| 20260505210149 | 11 | 81 | 3.2 | 11.3 | 0.10 | 0.43 | 0.43 | 94 | 1008.7 |
| 20260505204918 | 11 | 71 | 3.2 | 6.4 | 0.08 | 0.43 | 0.43 | 94 | 1008.9 |
| 20260505203648 | 11 | 77 | 4.8 | 12.9 | 0.08 | 0.38 | 0.38 | 94 | 1009.0 |
| 20260505202418 | 11 | 79 | 3.2 | 9.7 | 0.05 | 0.38 | 0.38 | 94 | 1009.1 |
| 20260505201148 | 11 | 85 | 3.2 | 6.4 | 0.08 | 0.38 | 0.36 | 93 | 1009.0 |
| 20260505195918 | 11 | 81 | 3.2 | 11.3 | 0.05 | 0.36 | 0.33 | 93 | 1009.0 |
| 20260505194647 | 11 | 90 | 3.2 | 11.3 | 0.08 | 0.38 | 0.33 | 93 | 1008.9 |
| 20260505193417 | 11 | 80 | 3.2 | 11.3 | 0.05 | 0.43 | 0.33 | 93 | 1009.1 |
| 20260505192147 | 11 | 89 | 4.8 | 14.5 | 0.03 | 0.51 | 0.30 | 93 | 1009.0 |
| 20260505190917 | 11 | 81 | 3.2 | 9.7 | 0.03 | 0.56 | 0.28 | 92 | 1009.1 |
| 20260505185647 | 11 | 57 | 1.6 | 6.4 | 0.00 | 0.56 | 0.28 | 92 | 1008.9 |
| 20260505184416 | 11 | 79 | 4.8 | 17.7 | 0.00 | 0.53 | 0.28 | 92 | 1009.2 |
| 20260505183146 | 12 | 86 | 6.4 | 12.9 | 0.00 | 0.53 | 0.28 | 92 | 1009.2 |
| 20260505181916 | 12 | 22 | 4.8 | 14.5 | 0.00 | 0.53 | 0.28 | 91 | 1009.2 |
| 20260505180646 | 12 | 26 | 3.2 | 9.7 | 0.00 | 0.53 | 0.28 | 92 | 1009.2 |
| 20260505175415 | 12 | 84 | 3.2 | 11.3 | 0.00 | 0.53 | 0.28 | 91 | 1008.9 |
| 20260505174145 | 12 | 63 | 6.4 | 17.7 | 0.00 | 0.53 | 0.28 | 91 | 1009.1 |
| 20260505172915 | 13 | 20 | 3.2 | 11.3 | 0.03 | 0.53 | 0.28 | 90 | 1009.3 |
| 20260505171644 | 13 | 19 | 3.2 | 11.3 | 0.03 | 0.53 | 0.28 | 90 | 1009.4 |
| 20260505170414 | 13 | 19 | 3.2 | 11.3 | 0.03 | 0.53 | 0.28 | 90 | 1009.4 |
| 20260505165144 | 13 | 19 | 3.2 | 11.3 | 0.03 | 0.53 | 0.28 | 90 | 1009.4 |
| 20260505163914 | 13 | 27 | 1.6 | 4.8 | 0.05 | 0.53 | 0.28 | 90 | 1009.3 |
| 20260505162644 | 13 | 83 | 3.2 | 11.3 | 0.05 | 0.53 | 0.28 | 90 | 1009.3 |
| 20260505161413 | 13 | 67 | 3.2 | 11.3 | 0.05 | 0.53 | 0.28 | 90 | 1009.5 |